Time;durP1;ratioP1;P1;durP2;ratioP2;P2;SDS_P1;SDS_P2;PMS_P1;PMS_P2;Temp;Humidity;BMP_temperature;BMP_pressure;BME280_temperature;BME280_humidity;BME280_pressure;Samples;Min_cycle;Max_cycle;Signal;HPM_P1;HPM_P2
2021/11/20 00:02:26;;;;;;;2.60;2.00;;;;;;;10.31;100.00;101621.47;5048311;28;20458;-48
2021/11/20 00:04:53;;;;;;;0.30;0.20;;;;;;;10.39;100.00;101619.63;5036797;28;20539;-48
2021/11/20 00:07:21;;;;;;;0.30;0.20;;;;;;;10.43;100.00;101623.16;5044546;28;21045;-48
2021/11/20 00:09:49;;;;;;;0.30;0.20;;;;;;;10.37;100.00;101625.84;5039683;28;20501;-48
2021/11/20 00:12:23;;;;;;;0.30;0.20;;;;;;;10.40;100.00;101617.84;5039871;28;20964;-48
2021/11/20 00:14:50;;;;;;;0.30;0.20;;;;;;;10.33;100.00;101609.03;5045104;28;20450;-48
2021/11/20 00:17:17;;;;;;;1.03;0.60;;;;;;;10.23;100.00;101609.97;5040078;28;20514;-49
2021/11/20 00:19:44;;;;;;;0.30;0.20;;;;;;;10.33;100.00;101614.34;5046234;28;20459;-48
2021/11/20 00:22:16;;;;;;;0.73;0.73;;;;;;;10.29;100.00;101596.66;5039348;28;20487;-48
2021/11/20 00:24:53;;;;;;;0.30;0.20;;;;;;;10.38;100.00;101607.22;5028325;28;20453;-48
2021/11/20 00:27:24;;;;;;;0.30;0.20;;;;;;;10.33;100.00;101598.41;5050061;28;20537;-48
2021/11/20 00:30:16;;;;;;;0.30;0.20;;;;;;;10.33;100.00;101597.53;5042809;28;20480;-48
2021/11/20 00:32:44;;;;;;;0.30;0.20;;;;;;;10.35;100.00;101591.28;5033965;28;20513;-48
2021/11/20 00:35:13;;;;;;;0.30;0.20;;;;;;;10.13;100.00;101594.06;5046645;28;20443;-48
2021/11/20 00:37:41;;;;;;;0.30;0.20;;;;;;;10.22;100.00;101591.38;5027405;28;20496;-48
2021/11/20 00:40:16;;;;;;;0.30;0.20;;;;;;;10.26;100.00;101590.47;5039410;28;20452;-49
2021/11/20 00:42:43;;;;;;;0.30;0.20;;;;;;;10.19;100.00;101594.91;5044193;28;20502;-48
2021/11/20 00:45:10;;;;;;;1.00;0.93;;;;;;;10.24;100.00;101594.91;5045753;28;20482;-48
2021/11/20 00:47:37;;;;;;;0.30;0.20;;;;;;;10.08;100.00;101587.00;5041135;28;20490;-48
2021/11/20 00:50:05;;;;;;;0.30;0.20;;;;;;;10.17;100.00;101585.19;5039383;28;20447;-48
2021/11/20 00:52:32;;;;;;;0.30;0.30;;;;;;;10.26;100.00;101586.03;5047674;28;20435;-48
2021/11/20 00:54:59;;;;;;;0.30;0.20;;;;;;;10.26;100.00;101582.50;5052709;28;20499;-48
2021/11/20 00:57:25;;;;;;;0.30;0.20;;;;;;;10.23;100.00;101580.75;5038842;28;20506;-48
2021/11/20 00:59:52;;;;;;;6.20;1.63;;;;;;;10.22;100.00;101584.28;5050435;28;20463;-49
2021/11/20 01:02:19;;;;;;;0.30;0.20;;;;;;;10.17;100.00;101593.16;5038964;28;20508;-48
2021/11/20 01:04:46;;;;;;;0.30;0.20;;;;;;;10.07;100.00;101587.91;5049942;28;21033;-48
2021/11/20 01:07:13;;;;;;;0.30;0.20;;;;;;;10.13;100.00;101584.31;5038574;28;20561;-48
2021/11/20 01:09:44;;;;;;;0.30;0.20;;;;;;;10.18;100.00;101587.84;5051076;28;20451;-48
2021/11/20 01:12:19;;;;;;;1.30;1.27;;;;;;;10.26;100.00;101583.38;5038392;28;20462;-48
2021/11/20 01:14:47;;;;;;;0.30;0.20;;;;;;;10.21;100.00;101586.94;5038334;28;20456;-48
2021/11/20 01:17:15;;;;;;;0.30;0.20;;;;;;;10.20;100.00;101579.84;5044832;28;20541;-48
2021/11/20 01:19:43;;;;;;;0.30;0.20;;;;;;;10.21;100.00;101577.22;5045717;28;20454;-48
2021/11/20 01:22:13;;;;;;;0.30;0.20;;;;;;;10.30;100.00;101577.16;5039895;28;20507;-48
2021/11/20 01:24:40;;;;;;;0.30;0.20;;;;;;;10.19;100.00;101578.09;5038631;28;20925;-48
2021/11/20 01:27:07;;;;;;;0.30;0.20;;;;;;;10.19;100.00;101576.31;5049301;28;20505;-48
2021/11/20 01:29:34;;;;;;;0.30;0.20;;;;;;;10.14;100.00;101571.91;5038704;28;20487;-49
2021/11/20 01:32:01;;;;;;;0.30;0.20;;;;;;;10.18;100.00;101573.69;5048093;28;20451;-48
2021/11/20 01:34:28;;;;;;;0.30;0.20;;;;;;;10.26;100.00;101569.22;5041989;28;20451;-48
2021/11/20 01:36:58;;;;;;;0.30;0.20;;;;;;;10.10;100.00;101557.75;5047412;28;20530;-49
2021/11/20 01:39:28;;;;;;;0.30;0.20;;;;;;;10.17;100.00;101554.19;5049512;28;20450;-48
2021/11/20 01:42:00;;;;;;;0.30;0.20;;;;;;;10.21;100.00;101561.28;5042399;28;20451;-48
2021/11/20 01:44:32;;;;;;;0.30;0.20;;;;;;;10.09;100.00;101566.63;5049906;28;20443;-48
2021/11/20 01:47:06;;;;;;;0.30;0.20;;;;;;;10.07;100.00;101558.66;5032003;28;20535;-48
2021/11/20 01:49:38;;;;;;;0.30;0.20;;;;;;;10.17;100.00;101559.50;5048748;28;20518;-49
2021/11/20 01:52:26;;;;;;;0.30;0.20;;;;;;;10.23;100.00;101548.84;5049391;28;20473;-48
2021/11/20 01:55:13;;;;;;;0.30;0.20;;;;;;;10.11;100.00;101554.22;5050927;28;20490;-48
2021/11/20 01:57:49;;;;;;;0.30;0.20;;;;;;;10.12;100.00;101552.44;5041913;28;20475;-48
2021/11/20 02:00:35;;;;;;;0.60;0.60;;;;;;;10.09;100.00;101550.69;5051983;28;20994;-48
2021/11/20 02:03:05;;;;;;;0.30;0.20;;;;;;;10.09;100.00;101548.91;5037564;28;20454;-48
2021/11/20 02:05:39;;;;;;;0.30;0.20;;;;;;;10.14;100.00;101551.53;5042322;28;20458;-48
2021/11/20 02:08:22;;;;;;;0.30;0.20;;;;;;;10.19;100.00;101543.56;5049733;28;20560;-48
2021/11/20 02:10:54;;;;;;;0.30;0.20;;;;;;;10.06;100.00;101550.72;5036895;28;20822;-48
2021/11/20 02:13:24;;;;;;;0.30;0.20;;;;;;;9.97;100.00;101558.72;5042198;28;20443;-48
2021/11/20 02:15:58;;;;;;;0.30;0.20;;;;;;;9.98;100.00;101547.22;5045945;28;20540;-48
2021/11/20 02:18:26;;;;;;;0.30;0.20;;;;;;;10.03;100.00;101540.13;5049036;28;20456;-48
2021/11/20 02:20:58;;;;;;;0.30;0.20;;;;;;;10.06;100.00;101537.44;5046823;28;20451;-48
2021/11/20 02:23:25;;;;;;;0.30;0.20;;;;;;;10.04;100.00;101526.81;5041681;28;20482;-48
2021/11/20 02:25:51;;;;;;;0.30;0.20;;;;;;;9.94;100.00;101524.22;5030082;28;20567;-48
2021/11/20 02:28:18;;;;;;;0.30;0.20;;;;;;;10.00;100.00;101524.16;5047820;28;20584;-48
2021/11/20 02:30:47;;;;;;;0.30;0.20;;;;;;;9.99;100.00;101519.75;5044765;28;20516;-48
2021/11/20 02:33:26;;;;;;;4.13;1.67;;;;;;;9.82;100.00;101514.56;5048681;28;20458;-49
2021/11/20 02:36:03;;;;;;;0.30;0.20;;;;;;;9.89;100.00;101515.41;5048426;28;20573;-48
2021/11/20 02:38:36;;;;;;;0.30;0.20;;;;;;;9.93;100.00;101506.53;5032816;28;20450;-49
2021/11/20 02:41:04;;;;;;;0.30;0.20;;;;;;;9.90;100.00;101504.78;5041749;28;20478;-48
2021/11/20 02:43:37;;;;;;;0.30;0.20;;;;;;;9.98;100.00;101499.41;5044627;28;20546;-48
2021/11/20 02:46:05;;;;;;;0.30;0.20;;;;;;;9.97;100.00;101502.94;5046892;28;20467;-49
2021/11/20 02:48:32;;;;;;;0.30;0.20;;;;;;;9.90;100.00;101506.56;5040982;28;20509;-48
2021/11/20 02:51:04;;;;;;;0.30;0.20;;;;;;;9.92;100.00;101507.41;5048059;28;20827;-48
2021/11/20 02:53:35;;;;;;;0.40;0.40;;;;;;;9.88;100.00;101503.03;5054761;28;20451;-48
2021/11/20 02:56:04;;;;;;;0.30;0.20;;;;;;;9.90;100.00;101510.09;5048542;28;20848;-48
2021/11/20 02:58:31;;;;;;;0.40;0.30;;;;;;;9.87;100.00;101503.88;5040985;28;20948;-48
2021/11/20 03:01:05;;;;;;;0.30;0.20;;;;;;;9.84;100.00;101502.16;5049614;28;20857;-48
2021/11/20 03:03:33;;;;;;;0.30;0.20;;;;;;;9.79;100.00;101499.53;5047996;28;20485;-48
2021/11/20 03:06:00;;;;;;;0.30;0.20;;;;;;;9.76;100.00;101493.34;5042014;28;20498;-48
2021/11/20 03:08:26;;;;;;;0.93;0.93;;;;;;;9.74;100.00;101493.38;5047744;28;20518;-48
2021/11/20 03:10:53;;;;;;;0.30;0.20;;;;;;;9.77;100.00;101487.16;5042565;28;20451;-48
2021/11/20 03:13:20;;;;;;;0.30;0.20;;;;;;;9.78;100.00;101486.25;5041185;28;20522;-48
2021/11/20 03:15:47;;;;;;;0.30;0.20;;;;;;;9.77;100.00;101473.88;5046230;28;20483;-48
2021/11/20 03:18:14;;;;;;;0.30;0.20;;;;;;;9.77;100.00;101477.41;5047231;28;20473;-48
2021/11/20 03:20:42;;;;;;;0.90;0.90;;;;;;;9.78;100.00;101476.53;5043010;28;20509;-48
2021/11/20 03:23:12;;;;;;;0.30;0.20;;;;;;;9.76;100.00;101472.13;5041021;28;20502;-48
2021/11/20 03:25:39;;;;;;;0.30;0.20;;;;;;;9.75;100.00;101483.63;5048831;28;20856;-48
2021/11/20 03:28:05;;;;;;;0.30;0.20;;;;;;;9.71;100.00;101474.78;5031365;28;20526;-48
2021/11/20 03:30:32;;;;;;;0.30;0.20;;;;;;;9.76;100.00;101474.78;5051922;28;20457;-48
2021/11/20 03:32:59;;;;;;;2.20;2.10;;;;;;;9.70;100.00;101470.38;5047115;28;20483;-49
2021/11/20 03:35:26;;;;;;;0.30;0.20;;;;;;;9.73;100.00;101464.16;5044189;28;20450;-48
2021/11/20 03:37:53;;;;;;;0.30;0.20;;;;;;;9.72;100.00;101460.59;5040093;28;20881;-48
2021/11/20 03:40:21;;;;;;;0.30;0.20;;;;;;;9.68;100.00;101450.03;5044891;28;20509;-48
2021/11/20 03:42:48;;;;;;;0.30;0.20;;;;;;;9.65;100.00;101445.63;5040636;28;20497;-48
2021/11/20 03:45:18;;;;;;;0.30;0.20;;;;;;;9.74;100.00;101444.69;5042684;28;20444;-48
2021/11/20 03:47:44;;;;;;;0.30;0.20;;;;;;;9.73;100.00;101440.25;5043852;28;20540;-48
2021/11/20 03:50:13;;;;;;;0.30;0.20;;;;;;;9.71;100.00;101444.69;5042186;28;20487;-48
2021/11/20 03:52:42;;;;;;;0.30;0.20;;;;;;;9.65;100.00;101432.34;5052072;28;20450;-50
2021/11/20 03:55:13;;;;;;;0.30;0.20;;;;;;;9.68;100.00;101444.72;5053839;28;20513;-49
2021/11/20 03:57:40;;;;;;;0.30;0.20;;;;;;;9.66;100.00;101438.53;5039659;28;20474;-49
2021/11/20 04:00:10;;;;;;;0.30;0.20;;;;;;;9.59;100.00;101443.00;5052864;28;20451;-48
2021/11/20 04:02:37;;;;;;;0.30;0.20;;;;;;;9.58;100.00;101438.56;5038078;28;20474;-49
2021/11/20 04:05:05;;;;;;;0.30;0.20;;;;;;;9.56;100.00;101434.16;5039841;28;21018;-50
2021/11/20 04:07:31;;;;;;;0.30;0.20;;;;;;;9.56;100.00;101437.72;5049769;28;20478;-49
2021/11/20 04:09:58;;;;;;;0.30;0.20;;;;;;;9.53;100.00;101424.47;5040122;28;20565;-49
2021/11/20 04:12:25;;;;;;;0.30;0.20;;;;;;;9.56;100.00;101432.41;5045757;28;20494;-49
2021/11/20 04:14:51;;;;;;;0.30;0.20;;;;;;;9.58;100.00;101433.28;5046667;28;20453;-49
2021/11/20 04:17:18;;;;;;;0.30;0.20;;;;;;;9.48;100.00;101429.81;5040973;28;20490;-51
2021/11/20 04:19:45;;;;;;;0.30;0.20;;;;;;;9.49;100.00;101436.00;5039459;28;20452;-50
2021/11/20 04:22:12;;;;;;;0.30;0.20;;;;;;;9.54;100.00;101431.53;5045277;28;20447;-51
2021/11/20 04:24:38;;;;;;;0.30;0.20;;;;;;;9.50;100.00;101424.50;5033391;28;20968;-50
2021/11/20 04:27:06;;;;;;;0.30;0.20;;;;;;;9.57;100.00;101435.94;5045232;28;20530;-50
2021/11/20 04:29:33;;;;;;;0.30;0.20;;;;;;;9.58;100.00;101441.22;5035038;28;20491;-50
2021/11/20 04:31:59;;;;;;;0.30;0.20;;;;;;;9.61;100.00;101429.75;5048882;28;20454;-51
2021/11/20 04:34:27;;;;;;;0.30;0.20;;;;;;;9.53;100.00;101427.13;5038852;28;20973;-51
2021/11/20 04:36:53;;;;;;;0.50;0.50;;;;;;;9.49;100.00;101431.56;5044369;28;20511;-51
2021/11/20 04:39:20;;;;;;;0.30;0.20;;;;;;;9.48;100.00;101427.16;5046150;28;20500;-50
2021/11/20 04:41:47;;;;;;;0.30;0.20;;;;;;;9.55;100.00;101429.75;5041648;28;20470;-50
2021/11/20 04:44:13;;;;;;;0.30;0.20;;;;;;;9.48;100.00;101429.81;5038850;28;20456;-50
2021/11/20 04:46:40;;;;;;;0.30;0.20;;;;;;;9.53;100.00;101418.28;5044017;28;20521;-50
2021/11/20 04:49:07;;;;;;;0.30;0.20;;;;;;;9.50;100.00;101414.75;5046062;28;20514;-51
2021/11/20 04:51:34;;;;;;;0.30;0.20;;;;;;;9.50;100.00;101416.53;5033485;28;21030;-51
2021/11/20 04:54:00;;;;;;;0.30;0.20;;;;;;;9.47;100.00;101413.91;5042644;28;20459;-50
2021/11/20 04:56:28;;;;;;;0.47;0.47;;;;;;;9.52;100.00;101412.09;5043108;28;20522;-50
2021/11/20 04:58:55;;;;;;;0.50;0.50;;;;;;;9.53;100.00;101412.97;5048011;28;20494;-50
2021/11/20 05:01:25;;;;;;;0.30;0.20;;;;;;;9.50;100.00;101405.91;5045021;28;20523;-51
2021/11/20 05:03:53;;;;;;;0.30;0.20;;;;;;;9.49;100.00;101407.69;5046009;28;20955;-50
2021/11/20 05:06:22;;;;;;;0.30;0.20;;;;;;;9.50;100.00;101408.56;5041559;28;20471;-50
2021/11/20 05:08:50;;;;;;;0.30;0.20;;;;;;;9.53;100.00;101405.00;5044999;28;20937;-50
2021/11/20 05:11:16;;;;;;;1.17;1.17;;;;;;;9.49;100.00;101404.16;5043796;28;20496;-51
2021/11/20 05:13:45;;;;;;;0.30;0.20;;;;;;;9.44;100.00;101405.94;5038233;28;20509;-50
2021/11/20 05:16:11;;;;;;;0.30;0.30;;;;;;;9.44;100.00;101403.28;5040612;28;20487;-50
2021/11/20 05:18:39;;;;;;;0.33;0.30;;;;;;;9.42;100.00;101397.97;5049113;28;20469;-50
2021/11/20 05:21:06;;;;;;;0.30;0.20;;;;;;;9.47;100.00;101401.50;5040429;28;20452;-51
2021/11/20 05:23:34;;;;;;;0.30;0.20;;;;;;;9.47;100.00;101408.59;5050123;28;20457;-51
2021/11/20 05:26:01;;;;;;;0.30;0.20;;;;;;;9.49;100.00;101406.81;5040039;28;20471;-50
2021/11/20 05:28:28;;;;;;;0.30;0.20;;;;;;;9.53;100.00;101397.91;5045531;28;20448;-50
2021/11/20 05:30:55;;;;;;;0.40;0.30;;;;;;;9.55;100.00;101400.56;5040540;28;21003;-50
2021/11/20 05:33:35;;;;;;;0.30;0.20;;;;;;;9.53;100.00;101403.22;5046556;28;20510;-50
2021/11/20 05:36:03;;;;;;;0.30;0.20;;;;;;;9.49;100.00;101401.50;5045880;28;20473;-51
2021/11/20 05:38:30;;;;;;;0.30;0.20;;;;;;;9.64;100.00;101389.91;5039798;28;20823;-50
2021/11/20 05:40:57;;;;;;;0.30;0.20;;;;;;;9.47;100.00;101396.19;5038474;28;20486;-50
2021/11/20 05:43:23;;;;;;;0.30;0.20;;;;;;;9.44;100.00;101390.88;5044319;28;20447;-50
2021/11/20 05:46:02;;;;;;;0.30;0.20;;;;;;;9.45;100.00;101390.00;5041578;28;20475;-51
2021/11/20 05:48:29;;;;;;;0.30;0.20;;;;;;;9.50;100.00;101390.00;5042741;28;20522;-51
2021/11/20 05:50:56;;;;;;;0.30;0.20;;;;;;;9.46;100.00;101385.59;5045421;28;20451;-49
2021/11/20 05:53:24;;;;;;;0.30;0.20;;;;;;;9.47;100.00;101379.41;5033672;28;20505;-50
2021/11/20 05:55:54;;;;;;;0.30;0.20;;;;;;;9.49;100.00;101380.25;5034829;28;20528;-50
2021/11/20 05:58:22;;;;;;;0.30;0.20;;;;;;;9.49;100.00;101385.56;5043987;28;20951;-51
2021/11/20 06:00:52;;;;;;;0.30;0.20;;;;;;;9.43;100.00;101385.59;5047746;28;20458;-51
2021/11/20 06:03:21;;;;;;;0.30;0.20;;;;;;;9.44;100.00;101387.34;5040045;28;20448;-51
2021/11/20 06:05:48;;;;;;;0.30;0.20;;;;;;;9.47;100.00;101390.00;5043021;28;20999;-50
2021/11/20 06:08:15;;;;;;;0.83;0.80;;;;;;;9.47;100.00;101392.66;5037573;28;20448;-51
2021/11/20 06:10:44;;;;;;;0.30;0.20;;;;;;;9.49;100.00;101388.22;5027553;28;20518;-51
2021/11/20 06:13:14;;;;;;;0.30;0.20;;;;;;;9.47;100.00;101390.91;5037615;28;20452;-51
2021/11/20 06:15:42;;;;;;;0.40;0.30;;;;;;;9.38;100.00;101392.72;5046090;28;20474;-51
2021/11/20 06:18:09;;;;;;;0.30;0.20;;;;;;;9.35;100.00;101387.44;5037966;28;20460;-50
2021/11/20 06:20:38;;;;;;;0.30;0.20;;;;;;;9.36;100.00;101387.41;5042365;28;20507;-51
2021/11/20 06:23:26;;;;;;;0.30;0.20;;;;;;;9.35;100.00;101392.75;5048211;28;20874;-50
2021/11/20 06:25:53;;;;;;;0.30;0.20;;;;;;;9.33;100.00;101395.41;5046674;28;20552;-51
2021/11/20 06:28:20;;;;;;;0.30;0.20;;;;;;;9.35;100.00;101388.31;5041758;28;20446;-50
2021/11/20 06:30:46;;;;;;;0.30;0.20;;;;;;;9.35;100.00;101392.75;5043187;28;20516;-51
2021/11/20 06:33:13;;;;;;;0.30;0.20;;;;;;;9.37;100.00;101391.84;5048380;28;20441;-51
2021/11/20 06:35:40;;;;;;;0.30;0.20;;;;;;;9.32;100.00;101385.69;5036735;28;20594;-51
2021/11/20 06:38:07;;;;;;;0.30;0.20;;;;;;;9.36;100.00;101387.41;5048691;28;20509;-51
2021/11/20 06:40:38;;;;;;;0.90;0.90;;;;;;;9.34;100.00;101393.63;5046882;28;20490;-50
2021/11/20 06:43:06;;;;;;;0.30;0.20;;;;;;;9.40;100.00;101386.50;5039832;28;20476;-51
2021/11/20 06:45:37;;;;;;;0.30;0.20;;;;;;;9.43;100.00;101390.91;5047549;28;21006;-51
2021/11/20 06:48:05;;;;;;;0.40;0.40;;;;;;;9.33;100.00;101390.09;5043375;28;21012;-50
2021/11/20 06:50:34;;;;;;;0.30;0.20;;;;;;;9.30;100.00;101391.84;5035896;28;21035;-51
2021/11/20 06:53:03;;;;;;;2.83;0.97;;;;;;;9.17;100.00;101394.56;5047478;28;20454;-51
2021/11/20 06:55:31;;;;;;;0.30;0.23;;;;;;;9.17;100.00;101388.38;5052607;28;20951;-51
2021/11/20 06:58:09;;;;;;;17.47;1.60;;;;;;;9.12;100.00;101396.38;5043057;28;20486;-51
2021/11/20 07:00:40;;;;;;;0.30;0.20;;;;;;;9.15;100.00;101396.34;5052432;28;20557;-50
2021/11/20 07:03:17;;;;;;;0.30;0.20;;;;;;;9.24;100.00;101383.94;5045829;28;20817;-50
2021/11/20 07:05:47;;;;;;;0.30;0.20;;;;;;;9.23;100.00;101390.16;5038778;28;20474;-50
2021/11/20 07:08:17;;;;;;;0.30;0.20;;;;;;;9.30;100.00;101391.84;5047884;28;20454;-51
2021/11/20 07:10:48;;;;;;;0.30;0.20;;;;;;;9.33;100.00;101387.44;5025923;28;20525;-51
2021/11/20 07:13:15;;;;;;;0.53;0.53;;;;;;;9.34;100.00;101396.28;5037942;28;20452;-51
2021/11/20 07:15:43;;;;;;;1.17;1.07;;;;;;;9.45;100.00;101397.06;5042302;28;20988;-51
2021/11/20 07:18:10;;;;;;;0.40;0.40;;;;;;;9.46;100.00;101393.56;5034287;28;20473;-50
2021/11/20 07:20:39;;;;;;;0.30;0.20;;;;;;;9.49;100.00;101388.22;5042462;28;20866;-50
2021/11/20 07:23:06;;;;;;;0.30;0.20;;;;;;;9.48;100.00;101383.81;5049857;28;20496;-51
2021/11/20 07:25:33;;;;;;;0.30;0.20;;;;;;;9.49;100.00;101383.78;5045513;28;20487;-51
2021/11/20 07:28:01;;;;;;;2.20;1.80;;;;;;;9.44;100.00;101379.38;5038356;28;20448;-51
2021/11/20 07:30:30;;;;;;;0.30;0.20;;;;;;;9.45;100.00;101375.84;5044314;28;20495;-51
2021/11/20 07:32:57;;;;;;;0.30;0.20;;;;;;;9.53;100.00;101381.13;5015722;28;20459;-51
2021/11/20 07:35:28;;;;;;;1.43;1.43;;;;;;;9.54;100.00;101386.41;5042653;28;20488;-50
2021/11/20 07:37:55;;;;;;;0.97;0.90;;;;;;;9.63;100.00;101385.47;5023556;28;20944;-51
2021/11/20 07:40:25;;;;;;;0.30;0.20;;;;;;;9.68;100.00;101373.03;5027268;28;20547;-51
2021/11/20 07:42:51;;;;;;;0.30;0.20;;;;;;;9.68;100.00;101378.34;5032144;28;20451;-50
2021/11/20 07:45:19;;;;;;;0.53;0.53;;;;;;;9.65;100.00;101384.56;5042408;28;20516;-51
2021/11/20 07:47:46;;;;;;;0.30;0.20;;;;;;;9.66;100.00;101377.47;5041307;28;20451;-51
2021/11/20 07:50:16;;;;;;;0.30;0.20;;;;;;;9.76;100.00;101376.53;5047535;28;20548;-51
2021/11/20 07:52:43;;;;;;;0.30;0.20;;;;;;;10.02;100.00;101373.66;5035305;28;20544;-50
2021/11/20 07:55:12;;;;;;;0.40;0.40;;;;;;;10.16;100.00;101369.09;5039416;28;20455;-51
2021/11/20 07:57:39;;;;;;;0.30;0.20;;;;;;;10.03;100.00;101371.00;5040097;28;20524;-51
2021/11/20 08:00:15;;;;;;;0.30;0.20;;;;;;;9.98;100.00;101367.47;5052793;28;20530;-51
2021/11/20 08:02:41;;;;;;;0.40;0.40;;;;;;;9.88;100.00;101363.16;5039230;28;20451;-51
2021/11/20 08:05:09;;;;;;;0.30;0.20;;;;;;;10.00;100.00;101362.16;5039921;28;20535;-51
2021/11/20 08:07:36;;;;;;;0.30;0.20;;;;;;;9.96;100.00;101358.66;5045533;28;20468;-51
2021/11/20 08:10:06;;;;;;;1.03;0.93;;;;;;;9.99;100.00;101347.09;5046725;28;20571;-51
2021/11/20 08:12:33;;;;;;;0.30;0.20;;;;;;;10.02;100.00;101352.41;5041788;28;20967;-51
2021/11/20 08:15:00;;;;;;;0.30;0.20;;;;;;;10.13;100.00;101349.63;5039750;28;20452;-51
2021/11/20 08:17:27;;;;;;;0.30;0.20;;;;;;;10.21;100.00;101339.81;5044048;28;20479;-51
2021/11/20 08:19:53;;;;;;;0.93;0.90;;;;;;;10.22;100.00;101342.50;5046303;28;20797;-51
2021/11/20 08:22:20;;;;;;;0.30;0.20;;;;;;;10.07;100.00;101342.63;5042639;28;20501;-51
2021/11/20 08:24:47;;;;;;;0.30;0.20;;;;;;;10.14;100.00;101339.00;5039612;28;20506;-50
2021/11/20 08:27:14;;;;;;;0.30;0.20;;;;;;;10.17;100.00;101341.63;5043501;28;20526;-51
2021/11/20 08:29:41;;;;;;;0.30;0.20;;;;;;;10.39;100.00;101335.22;5046240;28;20487;-51
2021/11/20 08:32:10;;;;;;;0.30;0.20;;;;;;;10.26;100.00;101338.03;5043093;28;20486;-51
2021/11/20 08:34:40;;;;;;;0.30;0.20;;;;;;;10.24;100.00;101338.03;5039535;28;20482;-50
2021/11/20 08:37:11;;;;;;;0.30;0.20;;;;;;;10.17;100.00;101336.31;5041102;28;20513;-51
2021/11/20 08:39:38;;;;;;;1.27;0.90;;;;;;;10.25;100.00;101333.59;5046118;28;20452;-51
2021/11/20 08:42:06;;;;;;;0.40;0.30;;;;;;;10.20;100.00;101324.78;5044929;28;20451;-51
2021/11/20 08:44:32;;;;;;;0.40;0.40;;;;;;;10.28;100.00;101330.91;5039445;28;20870;-51
2021/11/20 08:46:59;;;;;;;0.30;0.20;;;;;;;10.40;100.00;101325.47;5040050;28;20476;-51
2021/11/20 08:49:26;;;;;;;0.30;0.20;;;;;;;10.37;100.00;101321.06;5045935;28;20975;-51
2021/11/20 08:51:53;;;;;;;0.30;0.20;;;;;;;10.50;100.00;101326.25;5045879;28;20484;-50
2021/11/20 08:54:20;;;;;;;0.30;0.20;;;;;;;10.44;100.00;101323.69;5051335;28;20478;-51
2021/11/20 08:56:48;;;;;;;0.30;0.30;;;;;;;10.43;100.00;101329.91;5039988;28;20467;-50
2021/11/20 08:59:20;;;;;;;0.30;0.20;;;;;;;10.45;100.00;101328.09;5050750;28;20459;-51
2021/11/20 09:02:12;;;;;;;0.40;0.30;;;;;;;10.39;100.00;101323.69;5041670;28;20479;-51
2021/11/20 09:04:42;;;;;;;0.30;0.20;;;;;;;10.43;100.00;101321.91;5029252;28;20459;-49
2021/11/20 09:07:20;;;;;;;0.30;0.20;;;;;;;10.71;100.00;101310.06;5045636;28;20479;-50
2021/11/20 09:09:52;;;;;;;0.30;0.20;;;;;;;10.94;100.00;101318.59;5044631;28;20486;-50
2021/11/20 09:12:25;;;;;;;2.00;1.20;;;;;;;10.88;100.00;101313.38;5039086;28;20447;-50
2021/11/20 09:15:03;;;;;;;0.30;0.30;;;;;;;10.77;100.00;101311.75;5038902;28;20502;-50
2021/11/20 09:17:29;;;;;;;0.30;0.20;;;;;;;10.78;100.00;101310.84;5043063;28;20475;-50
2021/11/20 09:19:56;;;;;;;0.30;0.20;;;;;;;11.02;100.00;101313.19;5045602;28;20508;-50
2021/11/20 09:22:23;;;;;;;0.30;0.20;;;;;;;10.84;100.00;101314.31;5041684;28;20504;-51
2021/11/20 09:24:50;;;;;;;0.30;0.20;;;;;;;10.71;100.00;101314.50;5038985;28;20596;-51
2021/11/20 09:27:36;;;;;;;0.50;0.50;;;;;;;10.96;100.00;101306.16;5040490;28;21014;-50
2021/11/20 09:30:12;;;;;;;0.53;0.53;;;;;;;10.97;100.00;101309.72;5045262;28;21004;-50
2021/11/20 09:32:39;;;;;;;0.30;0.20;;;;;;;10.88;100.00;101305.38;5045479;28;20447;-50
2021/11/20 09:35:06;;;;;;;0.30;0.20;;;;;;;10.86;100.00;101309.84;5038937;28;20504;-50
2021/11/20 09:37:32;;;;;;;0.30;0.20;;;;;;;11.05;100.00;101302.47;5038903;28;20851;-51
2021/11/20 09:39:59;;;;;;;0.30;0.20;;;;;;;10.82;100.00;101307.22;5039075;28;20451;-51
2021/11/20 09:42:41;;;;;;;0.43;0.43;;;;;;;10.88;100.00;101305.38;5038315;28;20534;-51
2021/11/20 09:45:16;;;;;;;0.33;0.30;;;;;;;10.86;100.00;101306.31;5042983;28;20844;-50
2021/11/20 09:47:49;;;;;;;0.30;0.20;;;;;;;10.80;100.00;101304.59;5045228;28;20455;-50
2021/11/20 09:50:20;;;;;;;0.30;0.23;;;;;;;11.00;100.00;101296.34;5043427;28;20547;-51
2021/11/20 09:52:49;;;;;;;0.30;0.20;;;;;;;11.11;100.00;101301.53;5039944;28;20443;-51
2021/11/20 09:55:20;;;;;;;0.30;0.20;;;;;;;10.91;100.00;101294.69;5054806;28;20504;-51
2021/11/20 09:58:01;;;;;;;1.40;1.30;;;;;;;11.05;100.00;101297.16;5048581;28;20448;-50
2021/11/20 10:00:47;;;;;;;0.30;0.20;;;;;;;11.05;100.00;101293.63;5051364;28;20460;-50
2021/11/20 10:03:29;;;;;;;0.30;0.20;;;;;;;11.22;100.00;101294.25;5039751;28;20446;-51
2021/11/20 10:06:00;;;;;;;0.33;0.23;;;;;;;11.19;100.00;101286.31;5031032;28;20821;-51
2021/11/20 10:08:28;;;;;;;0.40;0.40;;;;;;;11.24;100.00;101282.69;5042328;28;20497;-50
2021/11/20 10:10:57;;;;;;;0.67;0.67;;;;;;;11.34;100.00;101282.53;5047381;28;20494;-50
2021/11/20 10:13:29;;;;;;;0.30;0.20;;;;;;;11.28;100.00;101280.88;5048640;28;20908;-50
2021/11/20 10:16:07;;;;;;;0.40;0.30;;;;;;;11.41;100.00;101277.09;5045090;28;20912;-48
2021/11/20 10:18:58;;;;;;;0.30;0.20;;;;;;;11.34;100.00;101279.88;5042331;28;20530;-48
2021/11/20 10:21:44;;;;;;;1.70;1.60;;;;;;;11.43;100.00;101274.41;5042399;28;20473;-48
2021/11/20 10:24:26;;;;;;;3.13;2.93;;;;;;;11.85;100.00;101276.38;5044369;28;20474;-49
2021/11/20 10:27:33;;;;;;;0.30;0.20;;;;;;;11.38;100.00;101270.97;5042223;28;20449;-48
2021/11/20 10:30:07;;;;;;;0.30;0.20;;;;;;;11.27;100.00;101268.47;5041668;28;20496;-49
2021/11/20 10:32:54;;;;;;;0.30;0.20;;;;;;;11.91;100.00;101258.50;5051056;28;20504;-48
2021/11/20 10:35:44;;;;;;;0.30;0.20;;;;;;;11.49;100.00;101256.53;5033789;28;20482;-49
2021/11/20 10:38:22;;;;;;;0.30;0.20;;;;;;;11.56;100.00;101260.00;5041546;28;20442;-49
2021/11/20 10:41:25;;;;;;;0.30;0.20;;;;;;;11.53;100.00;101247.63;5041338;28;20866;-48
2021/11/20 10:44:17;;;;;;;0.30;0.20;;;;;;;11.72;100.00;101248.16;5042598;28;20443;-48
2021/11/20 10:46:59;;;;;;;0.30;0.20;;;;;;;12.00;100.00;101242.34;5044263;28;20475;-49
2021/11/20 10:49:45;;;;;;;0.30;0.20;;;;;;;11.99;100.00;101236.16;5041334;28;20454;-49
2021/11/20 10:52:14;;;;;;;0.30;0.27;;;;;;;11.82;100.00;101231.16;5041360;28;20447;-49
2021/11/20 10:54:59;;;;;;;0.30;0.20;;;;;;;11.81;100.00;101228.50;5046504;28;20779;-49
2021/11/20 10:58:03;;;;;;;0.30;0.20;;;;;;;11.69;100.00;101220.72;5047819;28;20984;-49
2021/11/20 11:01:11;;;;;;;1.53;1.43;;;;;;;11.58;100.00;101208.47;5050444;28;20823;-48
2021/11/20 11:03:46;;;;;;;0.30;0.20;;;;;;;11.57;100.00;101206.72;5022984;28;20451;-49
2021/11/20 11:06:29;;;;;;;0.73;0.70;;;;;;;11.70;100.00;101201.16;5043096;28;21127;-48
2021/11/20 11:09:23;;;;;;;0.30;0.20;;;;;;;11.65;100.00;101200.34;5047971;28;20459;-49
2021/11/20 11:12:04;;;;;;;0.40;0.30;;;;;;;11.78;100.00;101188.56;5047564;28;20491;-49
2021/11/20 11:14:41;;;;;;;0.30;0.20;;;;;;;11.86;100.00;101182.22;5046674;28;20477;-48
2021/11/20 11:17:31;;;;;;;0.97;0.87;;;;;;;12.03;100.00;101176.56;5028751;28;20517;-49
2021/11/20 11:20:47;;;;;;;0.30;0.20;;;;;;;12.08;100.00;101172.03;5040857;28;21005;-49
2021/11/20 11:23:14;;;;;;;0.30;0.20;;;;;;;12.08;100.00;101169.38;5027860;28;20447;-50
2021/11/20 11:25:57;;;;;;;0.30;0.20;;;;;;;12.06;100.00;101163.19;5043434;28;20464;-49
2021/11/20 11:28:42;;;;;;;0.30;0.20;;;;;;;12.09;100.00;101156.91;5041108;28;20513;-49
2021/11/20 11:31:32;;;;;;;0.30;0.20;;;;;;;12.14;100.00;101144.34;5040635;28;20514;-48
2021/11/20 11:34:07;;;;;;;0.30;0.20;;;;;;;12.09;100.00;101147.13;5031272;28;20535;-49
2021/11/20 11:36:55;;;;;;;0.30;0.20;;;;;;;12.08;100.00;101123.19;5033987;28;20493;-49
2021/11/20 11:39:35;;;;;;;0.30;0.20;;;;;;;12.08;100.00;101125.84;5047131;28;20447;-48
2021/11/20 11:42:20;;;;;;;0.40;0.30;;;;;;;12.16;100.00;101116.75;5046069;28;20488;-48